createdAt,value
2023-11-05T00:01:34.063Z,95430.72
2023-11-05T00:07:36.290Z,95423.66
2023-11-05T00:13:38.401Z,95431.50
2023-11-05T00:19:40.353Z,95432.09
2023-11-05T00:25:42.381Z,95438.22
2023-11-05T00:31:44.688Z,95435.56
2023-11-05T00:37:46.675Z,95440.25
2023-11-05T00:43:48.771Z,95431.03
2023-11-05T00:49:50.818Z,95429.22
2023-11-05T00:55:54.165Z,95426.50
2023-11-05T01:01:58.476Z,95426.34
2023-11-05T01:08:00.459Z,95444.53
2023-11-05T01:14:02.427Z,95453.13
2023-11-05T01:20:07.712Z,95448.88
2023-11-05T01:26:09.664Z,95447.38
2023-11-05T01:32:11.681Z,95443.31
2023-11-05T01:38:13.725Z,95433.69
2023-11-05T01:44:15.782Z,95418.75
2023-11-05T01:50:18.374Z,95407.31
2023-11-05T01:56:23.989Z,95400.03
2023-11-05T02:02:26.689Z,95388.03
2023-11-05T02:08:28.725Z,95391.94
2023-11-05T02:14:30.721Z,95382.94
2023-11-05T02:20:32.692Z,95371.91
2023-11-05T02:26:34.664Z,95360.13
2023-11-05T02:32:36.666Z,95346.97
2023-11-05T02:38:39.675Z,95355.06
2023-11-05T02:44:42.802Z,95345.97
2023-11-05T02:50:44.808Z,95343.56
2023-11-05T02:56:46.767Z,95331.94
2023-11-05T03:02:48.776Z,95334.06
2023-11-05T03:08:50.851Z,95335.78
2023-11-05T03:14:52.944Z,95328.50
2023-11-05T03:20:54.875Z,95328.25
2023-11-05T03:26:57.138Z,95327.31
2023-11-05T03:32:59.206Z,95324.75
2023-11-05T03:39:01.464Z,95310.84
2023-11-05T03:45:03.657Z,95299.91
2023-11-05T03:51:05.954Z,95285.63
2023-11-05T03:57:07.879Z,95276.22
2023-11-05T04:03:09.880Z,95280.09
2023-11-05T04:09:13.505Z,95282.38
2023-11-05T04:15:15.515Z,95280.09
2023-11-05T04:21:17.583Z,95270.59
2023-11-05T04:27:20.294Z,95262.03
2023-11-05T04:33:22.306Z,95252.75
2023-11-05T04:39:24.330Z,95245.00
2023-11-05T04:45:26.278Z,95241.84
2023-11-05T04:51:30.406Z,95236.72
2023-11-05T04:57:32.738Z,95222.41
2023-11-05T05:03:35.150Z,95226.34
2023-11-05T05:09:38.514Z,95225.16
2023-11-05T05:15:40.961Z,95229.25
2023-11-05T05:21:47.139Z,95223.78
2023-11-05T05:27:49.200Z,95222.50
2023-11-05T05:33:51.127Z,95217.53
2023-11-05T05:39:53.401Z,95231.34
2023-11-05T05:45:55.317Z,95223.09
2023-11-05T05:51:57.291Z,95224.09
2023-11-05T05:58:00.182Z,95230.44
2023-11-05T06:04:02.214Z,95237.38
2023-11-05T06:10:06.991Z,95228.94
2023-11-05T06:16:09.733Z,95227.75
2023-11-05T06:22:12.543Z,95221.00
2023-11-05T06:28:15.725Z,95220.31
2023-11-05T06:34:18.967Z,95222.28
2023-11-05T06:40:21.099Z,95218.13
2023-11-05T06:46:23.159Z,95216.06
2023-11-05T06:52:26.134Z,95222.09
2023-11-05T06:58:28.119Z,95228.44
2023-11-05T07:04:30.981Z,95228.56
2023-11-05T07:10:34.240Z,95229.34
2023-11-05T07:16:36.994Z,95240.34
2023-11-05T07:22:40.832Z,95243.34
2023-11-05T07:28:45.367Z,95236.75
2023-11-05T07:34:48.922Z,95244.97
2023-11-05T07:40:50.904Z,95240.84
2023-11-05T07:46:52.902Z,95246.97
2023-11-05T07:52:54.859Z,95247.97
2023-11-05T07:58:57.069Z,95263.75
2023-11-05T08:04:59.581Z,95258.63
2023-11-05T08:11:01.925Z,95265.63
2023-11-05T08:17:04.648Z,95259.25
2023-11-05T08:23:06.719Z,95263.03
2023-11-05T08:29:08.790Z,95279.63
2023-11-05T08:35:12.814Z,95276.53
2023-11-05T08:41:15.656Z,95286.69
2023-11-05T08:47:17.643Z,95283.44
2023-11-05T08:53:22.728Z,95296.59
2023-11-05T08:59:24.904Z,95302.53
2023-11-05T09:05:27.899Z,95311.53
2023-11-05T09:11:29.858Z,95318.97
2023-11-05T09:17:31.814Z,95315.22
2023-11-05T09:23:33.841Z,95316.84
2023-11-05T09:29:35.788Z,95325.72
2023-11-05T09:35:37.746Z,95320.00
2023-11-05T09:41:39.911Z,95331.81
2023-11-05T09:47:42.415Z,95344.19
2023-11-05T09:53:44.684Z,95347.53
2023-11-05T09:59:48.401Z,95352.06
2023-11-05T10:05:50.382Z,95355.41
2023-11-05T10:11:52.341Z,95347.28
2023-11-05T10:17:55.542Z,95350.94
2023-11-05T10:23:57.977Z,95356.00
2023-11-05T10:30:00.672Z,95365.03
2023-11-05T10:36:02.637Z,95367.28
2023-11-05T10:42:05.450Z,95373.03
2023-11-05T10:48:09.508Z,95381.91
2023-11-05T10:54:11.542Z,95382.56
2023-11-05T11:00:28.435Z,95393.94
2023-11-05T11:06:30.396Z,95395.41
2023-11-05T11:12:34.246Z,95395.25
2023-11-05T11:18:39.481Z,95405.09
2023-11-05T11:24:41.927Z,95410.78
2023-11-05T11:30:44.052Z,95420.66
2023-11-05T11:36:46.044Z,95436.00
2023-11-05T11:42:48.241Z,95445.81
2023-11-05T11:48:50.366Z,95451.38
2023-11-05T11:54:52.777Z,95464.66
2023-11-05T12:00:58.993Z,95470.59
2023-11-05T12:07:06.402Z,95482.31
2023-11-05T12:13:08.667Z,95502.69
2023-11-05T12:19:11.894Z,95504.13
2023-11-05T12:25:14.734Z,95520.66
2023-11-05T12:31:17.010Z,95521.91
2023-11-05T12:37:20.535Z,95531.25
2023-11-05T12:43:24.792Z,95543.44
2023-11-05T12:49:27.033Z,95552.91
2023-11-05T12:55:30.591Z,95568.00
2023-11-05T13:01:32.683Z,95575.09
2023-11-05T13:07:35.324Z,95581.13
2023-11-05T13:13:37.381Z,95583.34
2023-11-05T13:19:39.383Z,95594.78
2023-11-05T13:25:42.589Z,95602.34
2023-11-05T13:31:44.633Z,95613.47
2023-11-05T13:37:47.343Z,95622.38
2023-11-05T13:43:50.276Z,95636.06
2023-11-05T13:49:52.266Z,95641.63
2023-11-05T13:55:54.327Z,95652.66
2023-11-05T14:01:56.366Z,95677.22
2023-11-05T14:07:58.428Z,95680.47
2023-11-05T14:14:00.594Z,95683.47
2023-11-05T14:20:06.774Z,95695.25
2023-11-05T14:26:09.124Z,95705.66
2023-11-05T14:32:12.034Z,95719.78
2023-11-05T14:38:13.982Z,95736.56
2023-11-05T14:44:16.292Z,95764.84
2023-11-05T14:50:18.256Z,95769.06
2023-11-05T14:56:24.512Z,95797.16
2023-11-05T15:02:26.526Z,95856.53
2023-11-05T15:08:28.484Z,95866.28
2023-11-05T15:14:32.066Z,95878.41
2023-11-05T15:20:34.039Z,95886.28
2023-11-05T15:26:35.980Z,95890.47
2023-11-05T15:32:38.730Z,95901.69
2023-11-05T15:38:40.981Z,95927.28
2023-11-05T15:44:42.914Z,95919.75
2023-11-05T15:56:49.824Z,95947.84
2023-11-05T16:02:52.493Z,95968.25
2023-11-05T16:08:56.213Z,95991.16
2023-11-05T16:14:58.345Z,95995.03
2023-11-05T16:21:00.604Z,96006.69
2023-11-05T16:27:03.187Z,96028.63
2023-11-05T16:33:05.251Z,96030.81
2023-11-05T16:39:07.319Z,96052.81
2023-11-05T16:45:10.064Z,96069.78
2023-11-05T16:51:13.246Z,96094.56
2023-11-05T16:57:15.661Z,96106.34
2023-11-05T17:03:18.268Z,96128.66
2023-11-05T17:09:20.307Z,96134.72
2023-11-05T17:15:22.306Z,96158.06
2023-11-05T17:21:24.698Z,96172.66
2023-11-05T17:27:26.769Z,96184.38
2023-11-05T17:33:29.806Z,96203.91
2023-11-05T17:39:33.325Z,96208.22
2023-11-05T17:45:41.104Z,96225.44
2023-11-05T17:51:43.097Z,96241.66
2023-11-05T17:57:45.031Z,96266.81
2023-11-05T18:03:48.122Z,96284.34
2023-11-05T18:09:50.209Z,96292.41
2023-11-05T18:15:52.154Z,96313.06
2023-11-05T18:21:54.274Z,96339.31
2023-11-05T18:27:56.209Z,96359.13
2023-11-05T18:34:00.294Z,96371.97
2023-11-05T18:40:03.110Z,96382.13
2023-11-05T18:46:05.478Z,96396.06
2023-11-05T18:52:07.443Z,96415.06
2023-11-05T18:58:10.504Z,96425.03
2023-11-05T19:04:13.866Z,96445.91
2023-11-05T19:10:15.893Z,96461.69
2023-11-05T19:16:17.843Z,96471.03
2023-11-05T19:22:21.188Z,96477.75
2023-11-05T19:28:23.147Z,96495.94
2023-11-05T19:34:25.172Z,96509.88
2023-11-05T19:40:27.261Z,96534.25
2023-11-05T19:46:29.335Z,96545.25
2023-11-05T19:52:31.463Z,96565.66
2023-11-05T19:58:36.232Z,96584.69
2023-11-05T20:04:38.783Z,96598.09
2023-11-05T20:10:40.850Z,96626.75
2023-11-05T20:16:45.666Z,96644.47
2023-11-05T20:22:47.742Z,96663.78
2023-11-05T20:28:51.670Z,96684.97
2023-11-05T20:34:55.492Z,96681.75
2023-11-05T20:40:57.662Z,96711.78
2023-11-05T20:46:59.889Z,96726.81
2023-11-05T20:53:01.944Z,96736.44
2023-11-05T20:59:04.445Z,96750.91
2023-11-05T21:05:08.433Z,96768.63
2023-11-05T21:11:10.630Z,96764.31
2023-11-05T21:17:13.265Z,96778.50
2023-11-05T21:23:15.272Z,96784.09
2023-11-05T21:29:18.247Z,96788.63
2023-11-05T21:35:20.705Z,96813.81
2023-11-05T21:41:23.576Z,96811.16
2023-11-05T21:47:25.713Z,96824.38
2023-11-05T21:53:27.665Z,96842.34
2023-11-05T21:59:29.592Z,96860.84
2023-11-05T22:05:31.978Z,96866.75
2023-11-05T22:11:33.954Z,96875.06
2023-11-05T22:17:35.958Z,96891.16
2023-11-05T22:23:39.191Z,96901.56
2023-11-05T22:29:41.112Z,96921.72
2023-11-05T22:35:43.428Z,96941.56
2023-11-05T22:41:46.615Z,96957.72
2023-11-05T22:47:48.579Z,96956.88
2023-11-05T22:53:50.686Z,96968.41
2023-11-05T22:59:52.676Z,96970.28
2023-11-05T23:05:56.149Z,96986.41
2023-11-05T23:11:58.426Z,96992.06
2023-11-05T23:18:01.144Z,97005.50
2023-11-05T23:24:03.319Z,97011.03
2023-11-05T23:30:08.875Z,97028.50
2023-11-05T23:36:11.283Z,97025.56
2023-11-05T23:42:13.561Z,97029.03
2023-11-05T23:48:15.623Z,97038.91
2023-11-05T23:54:17.826Z,97051.31
